Time;durP1;ratioP1;P1;durP2;ratioP2;P2;SDS_P1;SDS_P2;PMS_P1;PMS_P2;Temp;Humidity;BMP_temperature;BMP_pressure;BME280_temperature;BME280_humidity;BME280_pressure;Samples;Min_cycle;Max_cycle;Signal;HPM_P1;HPM_P2
2021/04/12 00:00:49;;;;;;;3.40;2.67;;;;;;;;;;5027721;28;20217;-85
2021/04/12 00:03:23;;;;;;;2.67;2.47;;;;;;;;;;5027909;28;20187;-85
2021/04/12 00:05:57;;;;;;;2.50;2.30;;;;;;;;;;5036356;28;20198;-86
2021/04/12 00:08:30;;;;;;;3.90;2.80;;;;;;;;;;5040079;28;20195;-85
2021/04/12 00:11:02;;;;;;;3.28;2.60;;;;;;;;;;5040283;28;20229;-86
2021/04/12 00:13:35;;;;;;;4.55;2.97;;;;;;;;;;5040441;28;20262;-85
2021/04/12 00:16:09;;;;;;;5.40;3.22;;;;;;;;;;5040443;28;20222;-85
2021/04/12 00:18:41;;;;;;;3.55;2.97;;;;;;;;;;5040651;28;20209;-86
2021/04/12 00:21:13;;;;;;;3.45;2.92;;;;;;;;;;5040809;28;20237;-86
2021/04/12 00:23:44;;;;;;;3.30;3.00;;;;;;;;;;5040226;28;20197;-86
2021/04/12 00:26:18;;;;;;;3.78;2.58;;;;;;;;;;5040268;28;20207;-85
2021/04/12 00:28:48;;;;;;;3.67;3.38;;;;;;;;;;5039909;28;20187;-85
2021/04/12 00:31:19;;;;;;;3.92;3.50;;;;;;;;;;5039162;28;20232;-85
2021/04/12 00:33:49;;;;;;;3.03;2.65;;;;;;;;;;5039252;28;20183;-86
2021/04/12 00:36:24;;;;;;;4.78;2.72;;;;;;;;;;5040018;28;20213;-85
2021/04/12 00:38:58;;;;;;;3.08;2.72;;;;;;;;;;5039812;28;20178;-85
2021/04/12 00:42:07;;;;;;;2.80;2.60;;;;;;;;;;5039196;28;20222;-84
2021/04/12 00:45:08;;;;;;;5.68;3.13;;;;;;;;;;5039675;28;20582;-85
2021/04/12 00:47:47;;;;;;;4.43;3.20;;;;;;;;;;5039170;28;20206;-85
2021/04/12 00:50:31;;;;;;;3.03;2.72;;;;;;;;;;5039532;28;20197;-85
2021/04/12 00:53:37;;;;;;;3.22;2.80;;;;;;;;;;5039018;28;20182;-85
2021/04/12 00:56:11;;;;;;;3.45;3.15;;;;;;;;;;5038989;28;20226;-85
2021/04/12 00:58:49;;;;;;;5.15;2.83;;;;;;;;;;5039783;28;20191;-85
2021/04/12 01:01:40;;;;;;;3.83;2.83;;;;;;;;;;5039728;28;20229;-85
2021/04/12 01:04:29;;;;;;;2.88;2.58;;;;;;;;;;5039855;28;20190;-85
2021/04/12 01:07:53;;;;;;;3.92;3.22;;;;;;;;;;5038786;28;20193;-87
2021/04/12 01:11:10;;;;;;;2.90;2.45;;;;;;;;;;5011037;28;20318;-85
2021/04/12 01:14:04;;;;;;;6.95;3.60;;;;;;;;;;5040023;28;20201;-85
2021/04/12 01:16:50;;;;;;;2.60;2.40;;;;;;;;;;5029336;28;20275;-85
2021/04/12 01:20:07;;;;;;;2.95;2.60;;;;;;;;;;5040237;28;20213;-85
2021/04/12 01:23:38;;;;;;;3.90;2.95;;;;;;;;;;5039859;28;20228;-85
2021/04/12 01:27:06;;;;;;;3.53;2.60;;;;;;;;;;4992518;28;20198;-85
2021/04/12 01:30:37;;;;;;;4.72;2.78;;;;;;;;;;5040986;28;20193;-85
2021/04/12 01:33:54;;;;;;;2.90;2.60;;;;;;;;;;5040667;28;20194;-85
2021/04/12 01:36:44;;;;;;;2.83;2.58;;;;;;;;;;5040031;28;20183;-86
2021/04/12 01:39:42;;;;;;;3.28;2.97;;;;;;;;;;5040837;28;20206;-85
2021/04/12 01:42:27;;;;;;;2.70;2.50;;;;;;;;;;5040281;28;20250;-85
2021/04/12 01:44:59;;;;;;;5.47;3.30;;;;;;;;;;5040599;28;20210;-85
2021/04/12 01:47:45;;;;;;;4.25;2.65;;;;;;;;;;5040802;28;20203;-86
2021/04/12 01:50:27;;;;;;;3.15;2.88;;;;;;;;;;5041260;28;20186;-85
2021/04/12 01:53:31;;;;;;;4.18;2.97;;;;;;;;;;5041689;28;20229;-86
2021/04/12 01:56:30;;;;;;;4.28;2.33;;;;;;;;;;5037945;28;20212;-85
2021/04/12 01:59:09;;;;;;;8.48;2.50;;;;;;;;;;5041550;28;20186;-85
2021/04/12 02:02:27;;;;;;;24.80;3.80;;;;;;;;;;5040502;28;20222;-85
2021/04/12 02:05:11;;;;;;;2.80;2.60;;;;;;;;;;5009430;28;20206;-86
2021/04/12 02:08:15;;;;;;;1.67;1.58;;;;;;;;;;5038329;28;20308;-87
2021/04/12 02:11:11;;;;;;;7.43;2.45;;;;;;;;;;4938973;29;20642;-85
2021/04/12 02:13:51;;;;;;;5.03;2.47;;;;;;;;;;5041795;28;20555;-87
2021/04/12 02:16:30;;;;;;;5.35;2.15;;;;;;;;;;5042185;28;20186;-86
2021/04/12 02:19:40;;;;;;;2.40;2.20;;;;;;;;;;5042305;28;20186;-86
2021/04/12 02:22:35;;;;;;;5.75;2.17;;;;;;;;;;5042764;28;20222;-86
2021/04/12 02:25:09;;;;;;;2.95;2.15;;;;;;;;;;5042363;28;20629;-85
2021/04/12 02:27:48;;;;;;;3.75;1.90;;;;;;;;;;5042295;28;20229;-87
2021/04/12 02:30:20;;;;;;;2.58;2.08;;;;;;;;;;5041906;28;20616;-85
2021/04/12 02:33:02;;;;;;;3.40;2.50;;;;;;;;;;5043174;28;20218;-86
2021/04/12 02:35:42;;;;;;;2.35;2.15;;;;;;;;;;5042338;28;20230;-87
2021/04/12 02:38:23;;;;;;;2.55;2.25;;;;;;;;;;5042694;28;20206;-86
2021/04/12 02:41:22;;;;;;;2.30;2.10;;;;;;;;;;5042691;28;20266;-86
2021/04/12 02:44:12;;;;;;;8.23;1.75;;;;;;;;;;5009068;28;20206;-86
2021/04/12 02:47:16;;;;;;;3.17;2.22;;;;;;;;;;5042290;28;20700;-86
2021/04/12 02:49:56;;;;;;;2.40;2.03;;;;;;;;;;5042886;28;20236;-87
2021/04/12 02:52:32;;;;;;;3.40;2.40;;;;;;;;;;5052748;28;20212;-85
2021/04/12 02:55:22;;;;;;;4.68;1.95;;;;;;;;;;5057471;28;20212;-86
2021/04/12 02:58:24;;;;;;;4.40;2.45;;;;;;;;;;5057520;28;20190;-87
2021/04/12 03:01:10;;;;;;;4.72;2.35;;;;;;;;;;5041921;28;20265;-86
2021/04/12 03:04:02;;;;;;;3.97;2.10;;;;;;;;;;5056425;28;20212;-86
2021/04/12 03:07:09;;;;;;;2.60;2.40;;;;;;;;;;5043196;28;20206;-85
2021/04/12 03:10:05;;;;;;;3.15;2.45;;;;;;;;;;5014491;28;20202;-86
2021/04/12 03:13:25;;;;;;;4.13;2.78;;;;;;;;;;5054627;28;20305;-86
2021/04/12 03:16:13;;;;;;;3.33;2.60;;;;;;;;;;5053555;28;20186;-88
2021/04/12 03:19:22;;;;;;;2.90;2.60;;;;;;;;;;5058106;28;20190;-86
2021/04/12 03:22:55;;;;;;;3.40;2.85;;;;;;;;;;5047932;28;20257;-86
2021/04/12 03:25:57;;;;;;;3.05;2.78;;;;;;;;;;5003482;28;20679;-85
2021/04/12 03:28:40;;;;;;;3.97;3.67;;;;;;;;;;5040900;28;20214;-86
2021/04/12 03:31:27;;;;;;;4.28;2.88;;;;;;;;;;5038843;28;20233;-85
2021/04/12 03:34:16;;;;;;;3.65;2.83;;;;;;;;;;5038115;28;20187;-85
2021/04/12 03:37:21;;;;;;;3.22;2.92;;;;;;;;;;4999914;28;20188;-86
2021/04/12 03:39:53;;;;;;;3.47;2.70;;;;;;;;;;4996932;28;20213;-85
2021/04/12 03:43:30;;;;;;;5.35;3.22;;;;;;;;;;5000331;28;20223;-86
2021/04/12 03:46:33;;;;;;;3.50;2.90;;;;;;;;;;4959252;28;20193;-86
2021/04/12 03:49:56;;;;;;;2.25;2.13;;;;;;;;;;5001057;28;20213;-86
2021/04/12 03:53:12;;;;;;;2.65;2.42;;;;;;;;;;5000491;28;20227;-86
2021/04/12 03:56:05;;;;;;;3.22;2.65;;;;;;;;;;5000093;28;20242;-85
2021/04/12 03:59:19;;;;;;;4.97;3.05;;;;;;;;;;4999966;28;20200;-85
2021/04/12 04:02:33;;;;;;;2.92;2.60;;;;;;;;;;4975078;28;20312;-86
2021/04/12 04:05:49;;;;;;;5.20;2.70;;;;;;;;;;4986302;28;20235;-85
2021/04/12 04:08:37;;;;;;;4.22;2.83;;;;;;;;;;4989567;28;20227;-86
2021/04/12 04:11:48;;;;;;;4.75;2.58;;;;;;;;;;4998736;28;20216;-85
2021/04/12 04:14:48;;;;;;;3.00;2.70;;;;;;;;;;4984219;28;20207;-85
2021/04/12 04:17:45;;;;;;;3.15;2.85;;;;;;;;;;4999289;28;20292;-85
2021/04/12 04:20:26;;;;;;;4.50;3.40;;;;;;;;;;4998831;28;20706;-86
2021/04/12 04:23:24;;;;;;;4.97;3.45;;;;;;;;;;4999390;28;20597;-86
2021/04/12 04:26:10;;;;;;;3.55;3.17;;;;;;;;;;4998853;28;20653;-86
2021/04/12 04:29:21;;;;;;;3.20;2.90;;;;;;;;;;4998879;28;20266;-85
2021/04/12 04:32:49;;;;;;;6.55;3.55;;;;;;;;;;4998531;28;20222;-85
2021/04/12 04:35:48;;;;;;;4.47;3.35;;;;;;;;;;4961741;28;20239;-85
2021/04/12 04:38:44;;;;;;;8.50;3.63;;;;;;;;;;4995260;28;20208;-86
2021/04/12 04:41:28;;;;;;;5.30;3.40;;;;;;;;;;4999838;28;20227;-84
2021/04/12 04:44:30;;;;;;;3.50;3.20;;;;;;;;;;4999013;28;20549;-85
2021/04/12 04:47:39;;;;;;;3.30;2.97;;;;;;;;;;4998962;28;20270;-86
2021/04/12 04:50:38;;;;;;;3.42;2.88;;;;;;;;;;4977190;28;20294;-86
2021/04/12 04:53:32;;;;;;;4.47;3.10;;;;;;;;;;4995971;28;20210;-86
2021/04/12 04:56:16;;;;;;;7.00;3.95;;;;;;;;;;4996432;28;20621;-86
2021/04/12 04:58:58;;;;;;;3.88;3.53;;;;;;;;;;4995116;28;20581;-86
2021/04/12 05:01:55;;;;;;;4.68;4.15;;;;;;;;;;4994752;28;20593;-86
2021/04/12 05:05:09;;;;;;;5.78;3.90;;;;;;;;;;4992315;28;20286;-87
2021/04/12 05:08:33;;;;;;;4.38;3.75;;;;;;;;;;4935294;28;20690;-87
2021/04/12 05:11:30;;;;;;;8.60;4.82;;;;;;;;;;4994395;28;20226;-87
2021/04/12 05:14:39;;;;;;;6.22;3.90;;;;;;;;;;4994426;28;20186;-87
2021/04/12 05:18:08;;;;;;;6.65;4.60;;;;;;;;;;4994152;28;20208;-87
2021/04/12 05:21:01;;;;;;;7.55;3.78;;;;;;;;;;4982432;28;20199;-87
2021/04/12 05:23:47;;;;;;;3.55;3.28;;;;;;;;;;4992160;28;20271;-87
2021/04/12 05:26:29;;;;;;;8.60;3.90;;;;;;;;;;4991621;28;20218;-87
2021/04/12 05:29:42;;;;;;;3.67;3.30;;;;;;;;;;4991684;28;20211;-88
2021/04/12 05:32:23;;;;;;;4.35;3.90;;;;;;;;;;4983971;28;20607;-87
2021/04/12 05:35:07;;;;;;;4.00;3.60;;;;;;;;;;5007699;28;20222;-87
2021/04/12 05:37:51;;;;;;;5.72;3.72;;;;;;;;;;5032800;28;20198;-88
2021/04/12 05:41:00;;;;;;;7.13;4.28;;;;;;;;;;5032905;28;20252;-87
2021/04/12 05:43:58;;;;;;;4.18;3.45;;;;;;;;;;4999624;28;20673;-88
2021/04/12 05:46:49;;;;;;;6.45;3.75;;;;;;;;;;5035805;28;20202;-89
2021/04/12 05:50:03;;;;;;;11.05;4.25;;;;;;;;;;5037234;28;20313;-87
2021/04/12 05:53:06;;;;;;;3.88;3.47;;;;;;;;;;5020085;28;20769;-87
2021/04/12 05:56:20;;;;;;;5.32;3.13;;;;;;;;;;5036496;28;20633;-87
2021/04/12 05:59:16;;;;;;;4.60;3.33;;;;;;;;;;5026388;28;20285;-89
2021/04/12 06:02:04;;;;;;;10.77;2.85;;;;;;;;;;5036734;28;20256;-87
2021/04/12 06:04:41;;;;;;;5.22;3.42;;;;;;;;;;5036268;28;20661;-87
2021/04/12 06:08:05;;;;;;;3.65;3.25;;;;;;;;;;5036070;28;20661;-87
2021/04/12 06:11:07;;;;;;;3.03;2.72;;;;;;;;;;4962183;28;20208;-87
2021/04/12 06:14:29;;;;;;;5.88;3.63;;;;;;;;;;5036393;28;20193;-87
2021/04/12 06:17:32;;;;;;;4.38;2.47;;;;;;;;;;5036408;28;20187;-87
2021/04/12 06:20:37;;;;;;;3.75;2.55;;;;;;;;;;5036304;28;20206;-88
2021/04/12 06:23:18;;;;;;;4.72;2.80;;;;;;;;;;5035925;28;20205;-87
2021/04/12 06:26:53;;;;;;;9.23;2.92;;;;;;;;;;5035876;28;20277;-87
2021/04/12 06:29:46;;;;;;;4.90;2.88;;;;;;;;;;4999965;28;20692;-90
2021/04/12 06:33:05;;;;;;;8.65;3.25;;;;;;;;;;5036154;28;20298;-87
2021/04/12 06:36:18;;;;;;;4.30;2.60;;;;;;;;;;5035830;28;20233;-88
2021/04/12 06:39:09;;;;;;;6.22;3.63;;;;;;;;;;5035304;28;20213;-88
2021/04/12 06:42:23;;;;;;;4.93;2.83;;;;;;;;;;5036195;28;20245;-87
2021/04/12 06:45:38;;;;;;;6.85;2.92;;;;;;;;;;5036010;28;20720;-88
2021/04/12 06:48:57;;;;;;;4.25;2.97;;;;;;;;;;4980071;28;20220;-88
2021/04/12 06:52:40;;;;;;;3.75;3.33;;;;;;;;;;5035826;28;20226;-87
2021/04/12 06:55:19;;;;;;;7.45;3.25;;;;;;;;;;5035149;28;20205;-88
2021/04/12 06:58:47;;;;;;;3.70;3.28;;;;;;;;;;5035266;28;20270;-88
2021/04/12 07:01:56;;;;;;;10.30;4.20;;;;;;;;;;5035490;28;20222;-88
2021/04/12 07:05:08;;;;;;;5.80;3.33;;;;;;;;;;5032489;28;20213;-87
2021/04/12 07:08:12;;;;;;;4.60;3.92;;;;;;;;;;5035980;28;20687;-88
2021/04/12 07:11:01;;;;;;;4.50;4.10;;;;;;;;;;5035344;28;20194;-88
2021/04/12 07:14:41;;;;;;;4.43;3.92;;;;;;;;;;5035648;28;20195;-88
2021/04/12 07:17:42;;;;;;;6.72;3.03;;;;;;;;;;4907648;29;20261;-87
2021/04/12 07:20:54;;;;;;;5.78;3.70;;;;;;;;;;4935209;29;20219;-87
2021/04/12 07:24:17;;;;;;;3.97;3.28;;;;;;;;;;5027272;28;20217;-88
2021/04/12 07:27:16;;;;;;;5.63;3.75;;;;;;;;;;5035112;28;20227;-87
2021/04/12 07:30:32;;;;;;;3.67;3.33;;;;;;;;;;5035720;28;20567;-87
2021/04/12 07:33:21;;;;;;;6.13;3.35;;;;;;;;;;5012460;28;20206;-87
2021/04/12 07:36:40;;;;;;;3.45;2.70;;;;;;;;;;5034812;28;20350;-87
2021/04/12 07:40:01;;;;;;;2.70;2.50;;;;;;;;;;5034636;28;20726;-88
2021/04/12 07:43:15;;;;;;;3.90;2.70;;;;;;;;;;5034417;28;20701;-87
2021/04/12 07:46:24;;;;;;;3.15;2.80;;;;;;;;;;4998607;28;20610;-88
2021/04/12 07:49:46;;;;;;;7.10;2.97;;;;;;;;;;5027377;28;20222;-86
2021/04/12 07:53:17;;;;;;;3.97;3.40;;;;;;;;;;5033972;28;20232;-87
2021/04/12 07:56:35;;;;;;;3.78;2.53;;;;;;;;;;4997403;28;20198;-87
2021/04/12 07:59:56;;;;;;;2.25;2.05;;;;;;;;;;5029312;28;20726;-88
2021/04/12 08:03:01;;;;;;;2.88;2.40;;;;;;;;;;5035017;28;20222;-88
2021/04/12 08:06:07;;;;;;;3.47;2.45;;;;;;;;;;5034314;28;20278;-88
2021/04/12 08:08:56;;;;;;;4.88;3.13;;;;;;;;;;5033147;28;20203;-87
2021/04/12 08:12:10;;;;;;;4.53;2.22;;;;;;;;;;5030238;28;20603;-90
2021/04/12 08:15:36;;;;;;;4.03;2.92;;;;;;;;;;5034381;28;20618;-87
2021/04/12 08:18:28;;;;;;;7.25;3.38;;;;;;;;;;5034539;28;20579;-88
2021/04/12 08:21:32;;;;;;;2.13;1.92;;;;;;;;;;5034257;28;20222;-88
2021/04/12 08:24:27;;;;;;;2.30;1.98;;;;;;;;;;5034270;28;20193;-88
2021/04/12 08:27:42;;;;;;;2.28;1.73;;;;;;;;;;5034304;28;20209;-88
2021/04/12 08:31:23;;;;;;;4.00;2.00;;;;;;;;;;5017286;28;20226;-88
2021/04/12 08:34:42;;;;;;;1.63;1.38;;;;;;;;;;5031500;28;20569;-88
2021/04/12 08:38:08;;;;;;;2.88;1.38;;;;;;;;;;5034264;28;20270;-87
2021/04/12 08:41:27;;;;;;;3.92;1.83;;;;;;;;;;5034210;28;20206;-87
2021/04/12 08:44:36;;;;;;;1.92;1.65;;;;;;;;;;5034159;28;20212;-87
2021/04/12 08:47:42;;;;;;;5.97;1.70;;;;;;;;;;5015756;28;20203;-87
2021/04/12 08:50:39;;;;;;;1.85;1.73;;;;;;;;;;5015396;28;20222;-86
2021/04/12 08:53:30;;;;;;;4.25;2.20;;;;;;;;;;5015279;28;20192;-86
2021/04/12 08:56:30;;;;;;;3.15;1.63;;;;;;;;;;5015425;28;20190;-86
2021/04/12 08:59:50;;;;;;;3.50;2.00;;;;;;;;;;5015690;28;20237;-87
2021/04/12 09:02:59;;;;;;;4.95;1.67;;;;;;;;;;5015417;28;20227;-87
2021/04/12 09:05:53;;;;;;;2.22;1.67;;;;;;;;;;4993445;28;20207;-87
2021/04/12 09:09:02;;;;;;;2.63;1.77;;;;;;;;;;5015505;28;20560;-86
2021/04/12 09:12:16;;;;;;;2.05;1.92;;;;;;;;;;4990130;28;20792;-87
2021/04/12 09:15:39;;;;;;;1.45;1.35;;;;;;;;;;5016412;28;20203;-87
2021/04/12 09:18:55;;;;;;;1.95;1.50;;;;;;;;;;4986480;28;20210;-88
2021/04/12 09:21:56;;;;;;;1.95;1.45;;;;;;;;;;5013213;28;20576;-87
2021/04/12 09:25:00;;;;;;;2.42;1.70;;;;;;;;;;5013750;28;20179;-87
2021/04/12 09:27:51;;;;;;;3.38;1.55;;;;;;;;;;5022147;28;20223;-86
2021/04/12 09:31:38;;;;;;;1.95;1.25;;;;;;;;;;5023301;28;20682;-86
2021/04/12 09:34:49;;;;;;;4.82;1.40;;;;;;;;;;4940658;29;20202;-87
2021/04/12 09:38:14;;;;;;;3.90;1.40;;;;;;;;;;4992375;28;20207;-87
2021/04/12 09:41:33;;;;;;;3.28;1.25;;;;;;;;;;4991479;28;20192;-87
2021/04/12 09:44:45;;;;;;;2.75;1.33;;;;;;;;;;4992564;28;20635;-87
2021/04/12 09:48:02;;;;;;;1.63;1.13;;;;;;;;;;5000207;28;20274;-87
2021/04/12 09:51:32;;;;;;;2.22;1.65;;;;;;;;;;5015532;28;20215;-87
2021/04/12 09:54:56;;;;;;;1.27;1.17;;;;;;;;;;4989107;28;20183;-85
2021/04/12 09:58:10;;;;;;;3.22;1.20;;;;;;;;;;4990318;28;20199;-87
2021/04/12 10:00:55;;;;;;;1.50;1.10;;;;;;;;;;4992522;28;20199;-87
2021/04/12 10:04:03;;;;;;;1.10;1.10;;;;;;;;;;4990284;28;20733;-86
2021/04/12 10:07:15;;;;;;;2.60;1.30;;;;;;;;;;4994791;28;20633;-88
2021/04/12 10:10:04;;;;;;;1.63;1.30;;;;;;;;;;4996353;28;20251;-86
2021/04/12 10:12:46;;;;;;;1.75;1.40;;;;;;;;;;5014247;28;20223;-88
2021/04/12 10:15:28;;;;;;;2.38;1.85;;;;;;;;;;5010453;28;20192;-87
2021/04/12 10:18:05;;;;;;;1.58;1.30;;;;;;;;;;5015561;28;20206;-88
2021/04/12 10:20:38;;;;;;;2.28;1.30;;;;;;;;;;5015466;28;20255;-88
2021/04/12 10:23:18;;;;;;;2.13;1.40;;;;;;;;;;5000674;28;20224;-87
2021/04/12 10:25:54;;;;;;;1.60;1.30;;;;;;;;;;4992936;28;20196;-87
2021/04/12 10:28:27;;;;;;;4.07;1.35;;;;;;;;;;4993445;28;20326;-87
2021/04/12 10:31:05;;;;;;;1.40;1.30;;;;;;;;;;4993028;28;20255;-88
2021/04/12 10:33:45;;;;;;;1.83;1.55;;;;;;;;;;4996333;28;20538;-88
2021/04/12 10:36:28;;;;;;;1.85;1.70;;;;;;;;;;5014544;28;20233;-89
2021/04/12 10:39:01;;;;;;;1.65;1.15;;;;;;;;;;5018437;28;20207;-88
2021/04/12 10:41:32;;;;;;;2.28;2.08;;;;;;;;;;5012906;28;20633;-87
2021/04/12 10:44:07;;;;;;;2.78;1.30;;;;;;;;;;5015274;28;20593;-88
2021/04/12 10:46:57;;;;;;;1.60;1.20;;;;;;;;;;4996357;28;20184;-88
2021/04/12 10:49:33;;;;;;;1.70;1.15;;;;;;;;;;5004347;28;20215;-87
2021/04/12 10:52:10;;;;;;;1.60;1.50;;;;;;;;;;5015519;28;20222;-88
2021/04/12 10:55:03;;;;;;;1.50;1.40;;;;;;;;;;5015627;28;20187;-87
2021/04/12 10:57:41;;;;;;;1.45;1.35;;;;;;;;;;5015055;28;20266;-87
2021/04/12 11:00:32;;;;;;;2.92;1.70;;;;;;;;;;5015652;28;20214;-87
2021/04/12 11:03:32;;;;;;;2.55;2.35;;;;;;;;;;5015737;28;20201;-87
2021/04/12 11:06:23;;;;;;;3.08;1.30;;;;;;;;;;5015123;28;20192;-87
2021/04/12 11:08:59;;;;;;;1.13;1.08;;;;;;;;;;5009823;28;20195;-89
2021/04/12 11:11:40;;;;;;;3.63;1.50;;;;;;;;;;5015703;28;20226;-87
2021/04/12 11:14:16;;;;;;;1.42;1.30;;;;;;;;;;5016336;28;20195;-87
2021/04/12 11:16:48;;;;;;;1.27;1.27;;;;;;;;;;5015587;28;20191;-86
2021/04/12 11:19:22;;;;;;;1.48;1.38;;;;;;;;;;5015267;28;20203;-86
2021/04/12 11:22:28;;;;;;;1.70;1.35;;;;;;;;;;5015470;28;20607;-87
2021/04/12 11:25:02;;;;;;;1.70;1.55;;;;;;;;;;5015668;28;20210;-87
2021/04/12 11:28:13;;;;;;;2.38;1.50;;;;;;;;;;5015464;28;20195;-87
2021/04/12 11:31:01;;;;;;;2.33;1.65;;;;;;;;;;5011101;28;20250;-86
2021/04/12 11:33:45;;;;;;;1.50;1.23;;;;;;;;;;5015499;28;20195;-87
2021/04/12 11:36:22;;;;;;;2.10;1.60;;;;;;;;;;5015019;28;20223;-86
2021/04/12 11:39:03;;;;;;;3.92;1.10;;;;;;;;;;5015651;28;20207;-86
2021/04/12 11:41:35;;;;;;;1.10;1.10;;;;;;;;;;5015056;28;20613;-86
2021/04/12 11:44:13;;;;;;;1.42;1.20;;;;;;;;;;5015154;28;20179;-87
2021/04/12 11:47:26;;;;;;;1.65;1.55;;;;;;;;;;5015124;28;20187;-87
2021/04/12 11:50:09;;;;;;;4.30;1.70;;;;;;;;;;5015670;28;20770;-87
2021/04/12 11:52:54;;;;;;;1.52;1.25;;;;;;;;;;5015116;28;20370;-86
2021/04/12 11:55:29;;;;;;;2.65;1.75;;;;;;;;;;5014762;28;20209;-87
2021/04/12 11:58:04;;;;;;;2.55;1.63;;;;;;;;;;5014882;28;20573;-86
2021/04/12 12:00:36;;;;;;;1.58;1.48;;;;;;;;;;5015173;28;20194;-87
2021/04/12 12:03:39;;;;;;;2.28;1.30;;;;;;;;;;5014798;28;20599;-86
2021/04/12 12:06:21;;;;;;;1.83;1.25;;;;;;;;;;5015010;28;20190;-86
2021/04/12 12:08:59;;;;;;;1.65;1.00;;;;;;;;;;5014600;28;20206;-87
2021/04/12 12:11:34;;;;;;;1.58;1.48;;;;;;;;;;5014212;28;20802;-87
2021/04/12 12:14:06;;;;;;;1.48;1.20;;;;;;;;;;5014111;28;20183;-86
2021/04/12 12:16:36;;;;;;;1.35;1.25;;;;;;;;;;5014199;28;20225;-88
2021/04/12 12:19:10;;;;;;;1.70;1.30;;;;;;;;;;5014464;28;20229;-87
2021/04/12 12:21:44;;;;;;;1.55;1.45;;;;;;;;;;5013982;28;20223;-87
2021/04/12 12:24:18;;;;;;;1.27;1.17;;;;;;;;;;5014673;28;20191;-87
2021/04/12 12:26:55;;;;;;;1.70;1.20;;;;;;;;;;5014306;28;20194;-89
2021/04/12 12:29:27;;;;;;;1.67;1.40;;;;;;;;;;5014602;28;20210;-87
2021/04/12 12:32:48;;;;;;;1.50;1.40;;;;;;;;;;5013987;28;20221;-87
2021/04/12 12:35:29;;;;;;;2.22;1.00;;;;;;;;;;5009269;28;20767;-87
2021/04/12 12:38:23;;;;;;;0.80;0.80;;;;;;;;;;5013113;28;20580;-87
2021/04/12 12:40:53;;;;;;;1.38;1.00;;;;;;;;;;5013866;28;20253;-87
2021/04/12 12:43:25;;;;;;;1.90;1.20;;;;;;;;;;5014023;28;20199;-87
2021/04/12 12:45:54;;;;;;;2.50;1.77;;;;;;;;;;5014235;28;20207;-88
2021/04/12 12:48:23;;;;;;;1.70;1.50;;;;;;;;;;5016266;28;20601;-86
2021/04/12 12:51:10;;;;;;;1.60;1.40;;;;;;;;;;5013978;28;20666;-87
2021/04/12 12:53:39;;;;;;;1.17;1.08;;;;;;;;;;5014359;28;20195;-85
2021/04/12 12:56:20;;;;;;;0.80;0.80;;;;;;;;;;5013342;28;20210;-87
2021/04/12 12:58:57;;;;;;;0.98;0.98;;;;;;;;;;5013552;28;20583;-87
2021/04/12 13:02:08;;;;;;;1.05;0.95;;;;;;;;;;5014532;28;20701;-87
2021/04/12 13:04:36;;;;;;;1.20;1.10;;;;;;;;;;5013675;28;20618;-87
2021/04/12 13:07:14;;;;;;;1.00;0.90;;;;;;;;;;5013907;28;20206;-86
2021/04/12 13:09:56;;;;;;;1.13;0.95;;;;;;;;;;5014103;28;20593;-86
2021/04/12 13:12:30;;;;;;;1.30;1.20;;;;;;;;;;5013376;28;20226;-86
2021/04/12 13:15:15;;;;;;;1.00;1.00;;;;;;;;;;5013073;28;20179;-87
2021/04/12 13:17:46;;;;;;;1.85;1.40;;;;;;;;;;5013660;28;20203;-87
2021/04/12 13:20:23;;;;;;;1.27;1.17;;;;;;;;;;5013230;28;20180;-87
2021/04/12 13:23:03;;;;;;;1.75;1.65;;;;;;;;;;5012866;28;20777;-87
2021/04/12 13:25:38;;;;;;;4.05;1.90;;;;;;;;;;5012731;28;20207;-87
2021/04/12 13:28:15;;;;;;;1.30;1.20;;;;;;;;;;5012669;28;20670;-87
2021/04/12 13:30:48;;;;;;;1.00;1.00;;;;;;;;;;5012484;28;20315;-87
2021/04/12 13:33:26;;;;;;;1.08;1.08;;;;;;;;;;5012843;28;20252;-87
2021/04/12 13:36:00;;;;;;;1.35;1.35;;;;;;;;;;5012980;28;20223;-85
2021/04/12 13:38:32;;;;;;;1.25;1.15;;;;;;;;;;5012805;28;20203;-87
2021/04/12 13:41:07;;;;;;;1.83;1.17;;;;;;;;;;5012756;28;20724;-87
2021/04/12 13:43:37;;;;;;;1.27;1.08;;;;;;;;;;5013038;28;20286;-86
2021/04/12 13:46:19;;;;;;;1.30;1.20;;;;;;;;;;5012314;28;20207;-89
2021/04/12 13:48:51;;;;;;;1.23;1.13;;;;;;;;;;5013040;28;20183;-86
2021/04/12 13:51:28;;;;;;;2.70;1.65;;;;;;;;;;5013094;28;20241;-86
2021/04/12 13:53:58;;;;;;;1.60;1.50;;;;;;;;;;5013007;28;20203;-87
2021/04/12 13:56:30;;;;;;;2.35;1.30;;;;;;;;;;5012849;28;20253;-86
2021/04/12 13:59:04;;;;;;;2.58;1.63;;;;;;;;;;5012540;28;20191;-86
2021/04/12 14:01:41;;;;;;;2.35;1.65;;;;;;;;;;5012765;28;20215;-87
2021/04/12 14:04:12;;;;;;;1.00;0.98;;;;;;;;;;5012769;28;20218;-86
2021/04/12 14:06:52;;;;;;;1.40;1.30;;;;;;;;;;5012437;28;20203;-86
2021/04/12 14:09:27;;;;;;;1.65;1.17;;;;;;;;;;5016419;28;20730;-85
2021/04/12 14:11:57;;;;;;;2.05;1.10;;;;;;;;;;5015962;28;20238;-87
2021/04/12 14:14:28;;;;;;;1.75;1.60;;;;;;;;;;5016389;28;20207;-87
2021/04/12 14:17:02;;;;;;;2.00;1.90;;;;;;;;;;5015886;28;20257;-86
2021/04/12 14:19:38;;;;;;;1.35;1.00;;;;;;;;;;5016224;28;20197;-87
2021/04/12 14:22:12;;;;;;;1.30;1.20;;;;;;;;;;5016341;28;20249;-86
2021/04/12 14:24:44;;;;;;;1.10;1.00;;;;;;;;;;5016110;28;20210;-88
2021/04/12 14:27:21;;;;;;;0.95;0.95;;;;;;;;;;5015215;28;20692;-87
2021/04/12 14:29:53;;;;;;;1.23;1.23;;;;;;;;;;5012253;28;20253;-86
2021/04/12 14:32:22;;;;;;;2.58;1.23;;;;;;;;;;5015171;28;20238;-86
2021/04/12 14:34:55;;;;;;;1.40;1.27;;;;;;;;;;5015619;28;20238;-88
2021/04/12 14:37:28;;;;;;;1.85;1.75;;;;;;;;;;5015675;28;20203;-85
2021/04/12 14:40:11;;;;;;;1.60;1.50;;;;;;;;;;5017348;28;20276;-86
2021/04/12 14:42:45;;;;;;;1.80;1.70;;;;;;;;;;5015413;28;20226;-86
2021/04/12 14:45:13;;;;;;;2.47;2.05;;;;;;;;;;5014865;28;20194;-85
2021/04/12 14:47:47;;;;;;;1.50;1.40;;;;;;;;;;5015316;28;20720;-85
2021/04/12 14:50:17;;;;;;;2.60;2.35;;;;;;;;;;5014998;28;20206;-86
2021/04/12 14:52:51;;;;;;;2.08;1.90;;;;;;;;;;5015506;28;20230;-85
2021/04/12 14:55:28;;;;;;;1.92;1.83;;;;;;;;;;5015520;28;20382;-85
2021/04/12 14:58:08;;;;;;;1.95;1.80;;;;;;;;;;5015549;28;20183;-87
2021/04/12 15:00:38;;;;;;;1.85;1.75;;;;;;;;;;5015062;28;20202;-86
2021/04/12 15:03:17;;;;;;;2.28;2.08;;;;;;;;;;5015405;28;20654;-87
2021/04/12 15:05:51;;;;;;;3.22;1.85;;;;;;;;;;5014936;28;20210;-86
2021/04/12 15:08:20;;;;;;;1.20;1.20;;;;;;;;;;5015216;28;20210;-84
2021/04/12 15:10:53;;;;;;;1.75;1.60;;;;;;;;;;5014720;28;20265;-86
2021/04/12 15:13:32;;;;;;;2.20;2.00;;;;;;;;;;5014927;28;20203;-86
2021/04/12 15:16:11;;;;;;;2.20;1.75;;;;;;;;;;5014768;28;20231;-86
2021/04/12 15:18:40;;;;;;;2.10;1.90;;;;;;;;;;5014419;28;20286;-86
2021/04/12 15:21:21;;;;;;;1.67;1.58;;;;;;;;;;5015268;28;20215;-86
2021/04/12 15:24:10;;;;;;;2.22;2.03;;;;;;;;;;5014686;28;20233;-86
2021/04/12 15:26:44;;;;;;;1.98;1.88;;;;;;;;;;5014566;28;20210;-84
2021/04/12 15:29:25;;;;;;;2.97;1.98;;;;;;;;;;5014652;28;20195;-85
2021/04/12 15:31:56;;;;;;;1.98;1.83;;;;;;;;;;5019900;28;20237;-86
2021/04/12 15:34:38;;;;;;;1.85;1.75;;;;;;;;;;5014705;28;20227;-87
2021/04/12 15:37:21;;;;;;;2.42;1.48;;;;;;;;;;5014424;28;20191;-86
2021/04/12 15:39:50;;;;;;;1.70;1.60;;;;;;;;;;5014417;28;20214;-86
2021/04/12 15:42:20;;;;;;;1.55;1.48;;;;;;;;;;5014512;28;20557;-87
2021/04/12 15:44:51;;;;;;;1.70;1.60;;;;;;;;;;5014952;28;20326;-87
2021/04/12 15:47:25;;;;;;;1.77;1.55;;;;;;;;;;5014348;28;20209;-86
2021/04/12 15:50:07;;;;;;;2.35;2.15;;;;;;;;;;5014662;28;20610;-87
2021/04/12 15:52:39;;;;;;;1.65;1.55;;;;;;;;;;5014152;28;20694;-86
2021/04/12 15:55:12;;;;;;;2.45;2.25;;;;;;;;;;5013939;28;20210;-87
2021/04/12 15:57:40;;;;;;;2.08;1.55;;;;;;;;;;5012649;28;20248;-87
2021/04/12 16:00:10;;;;;;;1.77;1.67;;;;;;;;;;5013806;28;20206;-88
2021/04/12 16:02:40;;;;;;;2.22;1.63;;;;;;;;;;5013929;28;20229;-87
2021/04/12 16:05:14;;;;;;;1.35;1.30;;;;;;;;;;5013580;28;20677;-87
2021/04/12 16:07:45;;;;;;;1.75;1.33;;;;;;;;;;5012759;28;20210;-87
2021/04/12 16:10:17;;;;;;;1.83;1.63;;;;;;;;;;5012710;28;20198;-87
2021/04/12 16:12:50;;;;;;;1.50;1.40;;;;;;;;;;5013677;28;20227;-86
2021/04/12 16:15:24;;;;;;;2.03;1.75;;;;;;;;;;5013756;28;20666;-87
2021/04/12 16:18:01;;;;;;;1.70;1.60;;;;;;;;;;5013544;28;20207;-87
2021/04/12 16:20:30;;;;;;;2.80;2.00;;;;;;;;;;5013982;28;20211;-88
2021/04/12 16:23:02;;;;;;;1.75;1.60;;;;;;;;;;5013615;28;20207;-87
2021/04/12 16:25:33;;;;;;;1.60;1.50;;;;;;;;;;5013435;28;20245;-87
2021/04/12 16:28:07;;;;;;;2.15;1.70;;;;;;;;;;5013630;28;20266;-86
2021/04/12 16:30:39;;;;;;;1.88;1.77;;;;;;;;;;5012925;28;20591;-87
2021/04/12 16:33:11;;;;;;;2.38;2.00;;;;;;;;;;5013321;28;20230;-87
2021/04/12 16:35:40;;;;;;;2.40;2.20;;;;;;;;;;5011059;28;20317;-88
2021/04/12 16:38:19;;;;;;;2.10;1.95;;;;;;;;;;5013157;28;20199;-87
2021/04/12 16:41:05;;;;;;;2.40;2.20;;;;;;;;;;5013205;28;20202;-86
2021/04/12 16:43:41;;;;;;;2.72;1.90;;;;;;;;;;5010331;28;20214;-87
2021/04/12 16:46:18;;;;;;;2.00;1.90;;;;;;;;;;5011384;28;20202;-87
2021/04/12 16:48:48;;;;;;;1.90;1.75;;;;;;;;;;5013287;28;20207;-87
2021/04/12 16:51:29;;;;;;;4.47;2.10;;;;;;;;;;5010717;28;20302;-86
2021/04/12 16:54:00;;;;;;;2.00;1.73;;;;;;;;;;5013058;28;20202;-87
2021/04/12 16:56:31;;;;;;;2.22;1.90;;;;;;;;;;5011575;28;20246;-87
2021/04/12 16:59:09;;;;;;;1.98;1.80;;;;;;;;;;5013212;28;20206;-87
2021/04/12 17:01:42;;;;;;;2.00;1.90;;;;;;;;;;5013363;28;20222;-87